createdAt,value
2022-11-26T00:00:30.966Z,16.83
2022-11-26T00:02:57.831Z,14.60
2022-11-26T00:05:27.831Z,12.10
2022-11-26T00:07:56.414Z,16.43
2022-11-26T00:10:25.985Z,16.50
2022-11-26T00:12:53.110Z,13.80
2022-11-26T00:15:21.873Z,13.80
2022-11-26T00:17:49.834Z,13.33
2022-11-26T00:20:18.012Z,12.33
2022-11-26T00:22:50.973Z,14.73
2022-11-26T00:25:27.051Z,11.47
2022-11-26T00:27:55.527Z,11.90
2022-11-26T00:30:25.639Z,11.30
2022-11-26T00:32:56.026Z,15.43
2022-11-26T00:35:23.538Z,13.67
2022-11-26T00:37:58.549Z,8.93
2022-11-26T00:40:27.611Z,12.73
2022-11-26T00:43:00.120Z,13.67
2022-11-26T00:45:30.431Z,14.00
2022-11-26T00:48:01.770Z,13.77
2022-11-26T00:50:33.828Z,10.77
2022-11-26T00:53:00.500Z,12.17
2022-11-26T00:55:32.800Z,14.97
2022-11-26T00:58:00.086Z,14.07
2022-11-26T01:00:30.808Z,14.37
2022-11-26T01:02:57.569Z,12.17
2022-11-26T01:05:27.169Z,10.63
2022-11-26T01:07:53.914Z,13.50
2022-11-26T01:10:24.730Z,12.67
2022-11-26T01:12:52.896Z,9.93
2022-11-26T01:15:22.130Z,13.60
2022-11-26T01:17:49.486Z,18.27
2022-11-26T01:20:26.207Z,10.57
2022-11-26T01:22:54.483Z,7.13
2022-11-26T01:25:22.027Z,12.47
2022-11-26T01:27:49.072Z,15.83
2022-11-26T01:30:27.445Z,10.50
2022-11-26T01:32:54.101Z,9.43
2022-11-26T01:35:21.770Z,16.63
2022-11-26T01:37:49.036Z,16.07
2022-11-26T01:40:21.997Z,24.93
2022-11-26T01:42:50.790Z,38.70
2022-11-26T01:45:20.250Z,37.60
2022-11-26T01:47:49.647Z,45.13
2022-11-26T01:50:28.771Z,40.87
2022-11-26T01:52:59.432Z,57.67
2022-11-26T01:55:33.060Z,55.73
2022-11-26T01:57:59.785Z,48.67
2022-11-26T02:00:26.495Z,49.83
2022-11-26T02:02:53.280Z,47.53
2022-11-26T02:05:29.470Z,62.37
2022-11-26T02:07:57.282Z,37.73
2022-11-26T02:10:24.059Z,79.27
2022-11-26T02:12:51.607Z,49.73
2022-11-26T02:15:18.475Z,74.83
2022-11-26T02:17:52.668Z,47.93
2022-11-26T02:20:40.508Z,64.93
2022-11-26T02:23:28.928Z,58.33
2022-11-26T02:26:22.728Z,39.93
2022-11-26T02:29:07.812Z,27.63
2022-11-26T02:31:59.351Z,36.77
2022-11-26T02:34:47.608Z,57.37
2022-11-26T02:37:20.713Z,41.10
2022-11-26T02:39:47.618Z,49.20
2022-11-26T02:42:34.480Z,36.13
2022-11-26T02:45:31.436Z,35.57
2022-11-26T02:48:01.157Z,50.10
2022-11-26T02:50:34.743Z,24.80
2022-11-26T02:53:03.151Z,44.63
2022-11-26T02:55:35.365Z,21.77
2022-11-26T02:58:02.687Z,39.90
2022-11-26T03:00:31.783Z,29.53
2022-11-26T03:03:17.009Z,27.90
2022-11-26T03:05:43.851Z,38.70
2022-11-26T03:08:10.534Z,28.63
2022-11-26T03:10:37.186Z,35.83
2022-11-26T03:13:03.883Z,39.20
2022-11-26T03:15:30.766Z,60.07
2022-11-26T03:17:57.392Z,34.53
2022-11-26T03:20:24.303Z,31.17
2022-11-26T03:22:51.132Z,26.50
2022-11-26T03:25:17.899Z,30.77
2022-11-26T03:27:44.604Z,16.17
2022-11-26T03:30:11.628Z,38.60
2022-11-26T03:32:38.288Z,46.53
2022-11-26T03:35:05.765Z,18.23
2022-11-26T03:37:32.481Z,24.30
2022-11-26T03:39:59.333Z,13.80
2022-11-26T03:42:26.013Z,16.53
2022-11-26T03:44:52.717Z,17.37
2022-11-26T03:47:19.381Z,19.73
2022-11-26T03:49:46.275Z,19.83
2022-11-26T03:52:13.101Z,11.53
2022-11-26T03:54:40.155Z,12.30
2022-11-26T03:57:07.303Z,18.70
2022-11-26T03:59:33.987Z,9.73
2022-11-26T04:02:00.704Z,9.67
2022-11-26T04:04:27.505Z,8.40
2022-11-26T04:06:54.135Z,11.77
2022-11-26T04:09:20.795Z,14.90
2022-11-26T04:11:47.496Z,9.47
2022-11-26T04:14:14.409Z,10.27
2022-11-26T04:16:41.254Z,9.33
2022-11-26T04:19:08.020Z,10.67
2022-11-26T04:21:34.726Z,10.77
2022-11-26T04:24:01.412Z,11.80
2022-11-26T04:26:28.080Z,11.23
2022-11-26T04:28:54.853Z,10.23
2022-11-26T04:31:21.891Z,11.83
2022-11-26T04:33:48.569Z,9.53
2022-11-26T04:36:15.263Z,9.83
2022-11-26T04:38:41.963Z,7.70
2022-11-26T04:41:08.656Z,6.63
2022-11-26T04:43:35.381Z,8.03
2022-11-26T04:46:02.154Z,7.90
2022-11-26T04:48:28.879Z,6.10
2022-11-26T04:50:55.545Z,10.37
2022-11-26T04:53:22.357Z,7.83
2022-11-26T04:55:50.224Z,6.47
2022-11-26T04:58:17.716Z,10.03
2022-11-26T05:00:50.177Z,8.90
2022-11-26T05:03:17.508Z,9.20
2022-11-26T05:05:44.153Z,9.80
2022-11-26T05:08:10.889Z,8.63
2022-11-26T05:10:37.585Z,10.30
2022-11-26T05:13:04.290Z,13.40
2022-11-26T05:15:31.003Z,10.53
2022-11-26T05:17:57.640Z,9.60
2022-11-26T05:20:24.324Z,13.57
2022-11-26T05:22:51.009Z,7.83
2022-11-26T05:25:17.788Z,12.80
2022-11-26T05:27:44.465Z,11.43
2022-11-26T05:30:11.773Z,10.33
2022-11-26T05:32:38.448Z,8.63
2022-11-26T05:35:05.515Z,11.50
2022-11-26T05:37:32.160Z,8.40
2022-11-26T05:39:58.849Z,8.00
2022-11-26T05:42:25.596Z,17.20
2022-11-26T05:44:52.287Z,7.60
2022-11-26T05:47:18.952Z,10.30
2022-11-26T05:49:45.615Z,6.73
2022-11-26T05:52:12.336Z,15.70
2022-11-26T05:54:39.471Z,11.37
2022-11-26T05:57:06.324Z,5.80
2022-11-26T05:59:33.063Z,15.83
2022-11-26T06:01:59.804Z,11.03
2022-11-26T06:04:26.499Z,11.53
2022-11-26T06:06:53.187Z,10.13
2022-11-26T06:09:19.934Z,12.17
2022-11-26T06:11:48.353Z,17.23
2022-11-26T06:14:15.000Z,10.97
2022-11-26T06:16:41.739Z,8.17
2022-11-26T06:19:08.488Z,7.10
2022-11-26T06:21:35.140Z,9.60
2022-11-26T06:24:01.864Z,10.77
2022-11-26T06:26:28.539Z,18.33
2022-11-26T06:28:55.333Z,12.87
2022-11-26T06:31:22.416Z,15.33
2022-11-26T06:33:54.053Z,16.60
2022-11-26T06:36:21.237Z,22.50
2022-11-26T06:38:47.981Z,17.43
2022-11-26T06:41:14.778Z,16.93
2022-11-26T06:43:41.551Z,21.47
2022-11-26T06:46:10.439Z,16.20
2022-11-26T06:48:38.243Z,21.83
2022-11-26T06:51:10.691Z,18.83
2022-11-26T06:53:38.111Z,33.53
2022-11-26T06:56:07.890Z,32.97
2022-11-26T06:58:34.737Z,25.33
2022-11-26T07:01:17.431Z,27.97
2022-11-26T07:03:44.271Z,27.63
2022-11-26T07:06:22.535Z,30.77
2022-11-26T07:08:50.184Z,25.10
2022-11-26T07:11:17.457Z,28.50
2022-11-26T07:13:44.599Z,26.00
2022-11-26T07:16:12.024Z,32.07
2022-11-26T07:18:39.040Z,26.87
2022-11-26T07:21:08.026Z,26.27
2022-11-26T07:23:35.299Z,25.43
2022-11-26T07:26:03.010Z,29.37
2022-11-26T07:28:30.528Z,28.97
2022-11-26T07:31:10.283Z,31.43
2022-11-26T07:33:40.196Z,26.47
2022-11-26T07:36:11.117Z,35.67
2022-11-26T07:38:37.773Z,26.83
2022-11-26T07:41:10.513Z,28.27
2022-11-26T07:43:38.907Z,31.00
2022-11-26T07:46:07.630Z,20.53
2022-11-26T07:48:35.020Z,30.37
2022-11-26T07:51:02.735Z,38.90
2022-11-26T07:53:34.229Z,42.07
2022-11-26T07:56:04.767Z,40.77
2022-11-26T07:58:31.918Z,48.90
2022-11-26T08:01:09.936Z,31.60
2022-11-26T08:03:43.017Z,33.30
2022-11-26T08:06:11.975Z,31.73
2022-11-26T08:08:39.347Z,29.53
2022-11-26T08:11:14.011Z,36.47
2022-11-26T08:13:41.314Z,33.23
2022-11-26T08:16:09.486Z,34.47
2022-11-26T08:18:36.510Z,40.30
2022-11-26T08:21:03.304Z,32.33
2022-11-26T08:23:31.416Z,31.97
2022-11-26T08:26:21.674Z,30.93
2022-11-26T08:28:46.682Z,39.33
2022-11-26T08:31:14.769Z,32.43
2022-11-26T08:33:42.103Z,42.63
2022-11-26T08:36:10.029Z,31.17
2022-11-26T08:38:37.299Z,35.73
2022-11-26T08:41:06.990Z,27.80
2022-11-26T08:44:04.994Z,24.40
2022-11-26T08:46:25.885Z,22.23
2022-11-26T08:48:55.413Z,25.13
2022-11-26T08:51:22.169Z,25.03
2022-11-26T08:53:48.859Z,24.33
2022-11-26T08:56:15.534Z,25.37
2022-11-26T08:58:44.975Z,24.17
2022-11-26T09:01:18.161Z,25.33
2022-11-26T09:03:50.971Z,30.50
2022-11-26T09:06:19.100Z,20.67
2022-11-26T09:09:04.793Z,24.67
2022-11-26T09:11:34.504Z,25.47
2022-11-26T09:14:01.559Z,23.90
2022-11-26T09:16:28.648Z,22.77
2022-11-26T09:18:55.687Z,26.90
2022-11-26T09:21:22.948Z,26.53
2022-11-26T09:23:49.695Z,24.47
2022-11-26T09:26:16.883Z,21.93
2022-11-26T09:28:43.554Z,24.20
2022-11-26T09:31:10.217Z,23.80
2022-11-26T09:33:36.872Z,22.70
2022-11-26T09:36:08.351Z,21.47
2022-11-26T09:38:35.833Z,21.30
2022-11-26T09:41:40.141Z,21.23
2022-11-26T09:44:39.148Z,21.20
2022-11-26T09:47:12.409Z,21.37
2022-11-26T09:49:51.188Z,19.50
2022-11-26T09:52:21.525Z,24.83
2022-11-26T09:54:52.631Z,20.43
2022-11-26T09:57:30.840Z,19.47
2022-11-26T09:59:57.629Z,16.20
2022-11-26T10:02:25.803Z,22.10
2022-11-26T10:04:52.728Z,19.87
2022-11-26T10:07:46.999Z,19.40
2022-11-26T10:10:23.142Z,19.43
2022-11-26T10:13:18.102Z,20.47
2022-11-26T10:16:01.696Z,18.10
2022-11-26T10:18:53.496Z,19.03
2022-11-26T10:22:03.282Z,22.67
2022-11-26T10:24:41.823Z,18.10
2022-11-26T10:27:16.500Z,17.20
2022-11-26T10:29:48.423Z,20.73
2022-11-26T10:32:25.944Z,19.53
2022-11-26T10:34:58.116Z,17.43
2022-11-26T10:37:26.974Z,24.00
2022-11-26T10:40:16.724Z,17.77
2022-11-26T10:42:47.413Z,15.50
2022-11-26T10:45:25.593Z,17.77
2022-11-26T10:47:52.276Z,17.27
2022-11-26T10:53:21.994Z,16.97
2022-11-26T10:55:49.147Z,21.40
2022-11-26T10:58:31.262Z,18.70
2022-11-26T11:01:05.696Z,17.30
2022-11-26T11:04:06.940Z,17.23
2022-11-26T11:06:35.071Z,29.57
2022-11-26T11:09:32.270Z,23.13
2022-11-26T11:12:13.331Z,19.33
2022-11-26T11:14:43.222Z,20.57
2022-11-26T11:17:24.220Z,25.77
2022-11-26T11:19:51.289Z,19.37
2022-11-26T11:22:20.502Z,14.17
2022-11-26T11:24:47.951Z,18.23
2022-11-26T11:27:27.024Z,16.77
2022-11-26T11:29:59.407Z,16.53
2022-11-26T11:32:40.187Z,20.63
2022-11-26T11:35:23.085Z,13.83
2022-11-26T11:37:55.856Z,17.20
2022-11-26T11:40:27.384Z,17.70
2022-11-26T11:42:59.135Z,12.93
2022-11-26T11:45:40.435Z,15.13
2022-11-26T11:48:07.087Z,16.07
2022-11-26T11:50:42.304Z,15.43
2022-11-26T11:53:28.782Z,13.63
2022-11-26T11:56:02.475Z,14.63
2022-11-26T11:58:42.383Z,15.80
2022-11-26T12:01:28.557Z,12.77
2022-11-26T12:04:18.061Z,12.40
2022-11-26T12:07:27.944Z,16.30
2022-11-26T12:09:59.290Z,14.07
2022-11-26T12:12:32.397Z,15.13
2022-11-26T12:15:12.965Z,15.47
2022-11-26T12:17:49.181Z,14.03
2022-11-26T12:20:38.767Z,12.53
2022-11-26T12:23:08.066Z,11.70
2022-11-26T12:25:38.793Z,28.17
2022-11-26T12:28:19.400Z,16.67
2022-11-26T12:30:51.697Z,16.87
2022-11-26T12:33:24.505Z,11.87
2022-11-26T12:35:56.482Z,13.97
2022-11-26T12:38:36.768Z,8.57
2022-11-26T12:41:15.580Z,20.10
2022-11-26T12:44:00.605Z,15.63
2022-11-26T12:46:32.992Z,10.47
2022-11-26T12:49:36.287Z,12.53
2022-11-26T12:52:28.438Z,13.83
2022-11-26T12:55:33.591Z,13.17
2022-11-26T12:58:02.258Z,13.50
2022-11-26T13:00:36.174Z,14.13
2022-11-26T13:03:06.019Z,12.17
2022-11-26T13:05:56.020Z,11.00
2022-11-26T13:08:48.846Z,13.53
2022-11-26T13:11:33.820Z,15.93
2022-11-26T13:14:07.386Z,11.27
2022-11-26T13:16:44.866Z,10.57
2022-11-26T13:19:19.293Z,25.70
2022-11-26T13:22:13.657Z,15.33
2022-11-26T13:25:09.093Z,15.23
2022-11-26T13:28:24.568Z,15.67
2022-11-26T13:31:26.403Z,14.87
2022-11-26T13:34:06.349Z,13.63
2022-11-26T13:36:51.004Z,21.17
2022-11-26T13:39:52.566Z,19.03
2022-11-26T13:42:37.712Z,13.40
2022-11-26T13:45:07.091Z,17.27
2022-11-26T13:47:58.561Z,22.70
2022-11-26T13:50:45.681Z,16.67
2022-11-26T13:53:31.953Z,16.47
2022-11-26T13:56:08.076Z,16.40
2022-11-26T13:58:45.682Z,15.13
2022-11-26T14:01:36.992Z,18.23
2022-11-26T14:04:07.837Z,18.30
2022-11-26T14:06:35.720Z,15.27
2022-11-26T14:09:03.292Z,18.77
2022-11-26T14:11:45.301Z,17.30
2022-11-26T14:14:23.896Z,13.13
2022-11-26T14:17:02.771Z,19.43
2022-11-26T14:19:41.558Z,12.87
2022-11-26T14:22:21.473Z,15.20
2022-11-26T14:24:50.931Z,15.20
2022-11-26T14:27:32.566Z,17.53
2022-11-26T14:30:08.401Z,13.83
2022-11-26T14:32:41.578Z,18.43
2022-11-26T14:35:34.108Z,17.03
2022-11-26T14:38:04.244Z,18.97
2022-11-26T14:40:34.064Z,16.70
2022-11-26T14:43:15.120Z,18.80
2022-11-26T14:45:44.034Z,16.00
2022-11-26T14:48:25.370Z,18.73
2022-11-26T14:50:53.642Z,15.43
2022-11-26T14:53:22.427Z,16.50
2022-11-26T14:55:50.404Z,19.33
2022-11-26T14:58:37.725Z,16.13
2022-11-26T15:01:22.803Z,15.57
2022-11-26T15:04:01.299Z,18.93
2022-11-26T15:06:37.945Z,19.30
2022-11-26T15:09:12.608Z,19.13
2022-11-26T15:11:59.654Z,18.70
2022-11-26T15:14:37.012Z,17.17
2022-11-26T15:17:06.144Z,13.57
2022-11-26T15:19:36.093Z,16.80
2022-11-26T15:22:08.881Z,14.90
2022-11-26T15:24:36.338Z,16.70
2022-11-26T15:27:03.505Z,25.23
2022-11-26T15:29:33.778Z,18.80
2022-11-26T15:32:01.057Z,18.33
2022-11-26T15:34:30.191Z,16.93
2022-11-26T15:36:56.973Z,41.97
2022-11-26T15:39:31.428Z,19.17
2022-11-26T15:42:05.878Z,17.27
2022-11-26T15:44:40.784Z,18.40
2022-11-26T15:47:19.616Z,17.00
2022-11-26T15:49:51.917Z,12.03
2022-11-26T15:52:23.220Z,16.27
2022-11-26T15:55:16.104Z,17.60
2022-11-26T15:57:43.623Z,17.17
2022-11-26T16:00:23.014Z,15.60
2022-11-26T16:02:51.425Z,23.03
2022-11-26T16:05:33.300Z,12.57
2022-11-26T16:08:25.204Z,16.70
2022-11-26T16:11:04.020Z,14.80
2022-11-26T16:13:32.480Z,16.43
2022-11-26T16:16:10.086Z,15.47
2022-11-26T16:18:42.819Z,14.67
2022-11-26T16:21:17.928Z,14.90
2022-11-26T16:23:53.127Z,14.53
2022-11-26T16:26:19.955Z,15.87
2022-11-26T16:28:47.665Z,18.23
2022-11-26T16:31:15.879Z,19.30
2022-11-26T16:33:43.061Z,14.70
2022-11-26T16:36:24.591Z,12.47
2022-11-26T16:38:52.118Z,15.53
2022-11-26T16:41:21.172Z,19.23
2022-11-26T16:43:48.863Z,15.17
2022-11-26T16:46:18.170Z,15.73
2022-11-26T16:48:46.385Z,14.50
2022-11-26T16:51:13.162Z,13.17
2022-11-26T16:53:39.957Z,17.43
2022-11-26T16:56:11.012Z,17.23
2022-11-26T16:58:37.862Z,15.00
2022-11-26T17:01:04.684Z,16.37
2022-11-26T17:03:33.372Z,19.47
2022-11-26T17:06:11.941Z,10.37
2022-11-26T17:08:38.621Z,15.67
2022-11-26T17:11:05.356Z,13.00
2022-11-26T17:13:32.068Z,11.77
2022-11-26T17:15:58.895Z,15.93
2022-11-26T17:18:26.073Z,11.70
2022-11-26T17:20:54.086Z,10.50
2022-11-26T17:23:20.768Z,15.03
2022-11-26T17:25:51.352Z,14.93
2022-11-26T17:28:18.165Z,17.30
2022-11-26T17:30:45.472Z,13.03
2022-11-26T17:33:12.733Z,13.53
2022-11-26T17:35:39.733Z,12.20
2022-11-26T17:38:21.123Z,12.10
2022-11-26T17:40:48.361Z,14.27
2022-11-26T17:43:15.385Z,13.33
2022-11-26T17:45:42.246Z,12.63
2022-11-26T17:48:13.981Z,12.70
2022-11-26T17:50:41.417Z,15.97
2022-11-26T17:53:08.214Z,11.13
2022-11-26T17:55:34.936Z,14.13
2022-11-26T17:58:01.653Z,12.60
2022-11-26T18:00:29.398Z,14.17
2022-11-26T18:02:56.599Z,13.20
2022-11-26T18:05:23.597Z,16.57
2022-11-26T18:07:50.424Z,11.10
2022-11-26T18:10:18.778Z,13.50
2022-11-26T18:12:45.701Z,14.00
2022-11-26T18:15:30.568Z,10.03
2022-11-26T18:17:57.297Z,13.73
2022-11-26T18:20:27.468Z,16.77
2022-11-26T18:22:56.554Z,15.00
2022-11-26T18:25:23.952Z,15.33
2022-11-26T18:27:51.289Z,16.90
2022-11-26T18:30:18.522Z,14.07
2022-11-26T18:32:45.378Z,12.40
2022-11-26T18:35:12.581Z,13.97
2022-11-26T18:37:40.144Z,11.47
2022-11-26T18:40:11.517Z,18.50
2022-11-26T18:42:38.677Z,13.47
2022-11-26T18:45:11.679Z,14.90
2022-11-26T18:47:38.694Z,16.33
2022-11-26T18:50:06.336Z,12.80
2022-11-26T18:52:32.979Z,11.83
2022-11-26T18:54:59.973Z,13.93
2022-11-26T18:57:27.313Z,13.80
2022-11-26T18:59:54.026Z,13.73
2022-11-26T19:02:20.750Z,12.60
2022-11-26T19:04:47.501Z,15.03
2022-11-26T19:07:14.317Z,13.20
2022-11-26T19:09:41.981Z,10.33
2022-11-26T19:12:09.086Z,14.13
2022-11-26T19:14:35.824Z,18.80
2022-11-26T19:17:02.636Z,18.70
2022-11-26T19:19:29.410Z,14.83
2022-11-26T19:22:00.917Z,15.33
2022-11-26T19:24:29.261Z,12.17
2022-11-26T19:26:56.244Z,14.60
2022-11-26T19:29:23.021Z,17.67
2022-11-26T19:31:49.738Z,20.67
2022-11-26T19:34:16.501Z,16.63
2022-11-26T19:36:47.969Z,14.80
2022-11-26T19:39:15.853Z,11.00
2022-11-26T19:41:42.671Z,9.10
2022-11-26T19:44:09.484Z,9.90
2022-11-26T19:46:40.423Z,10.47
2022-11-26T19:49:07.722Z,12.83
2022-11-26T19:51:34.411Z,11.70
2022-11-26T19:54:01.067Z,15.80
2022-11-26T19:56:30.385Z,9.87
2022-11-26T19:58:58.478Z,9.83
2022-11-26T20:01:27.230Z,10.87
2022-11-26T20:03:54.055Z,8.90
2022-11-26T20:06:23.811Z,12.70
2022-11-26T20:08:50.480Z,9.23
2022-11-26T20:11:19.020Z,11.90
2022-11-26T20:13:47.831Z,10.43
2022-11-26T20:16:20.392Z,11.23
2022-11-26T20:18:47.823Z,8.10
2022-11-26T20:21:20.256Z,10.17
2022-11-26T20:23:47.747Z,10.93
2022-11-26T20:26:14.393Z,7.80
2022-11-26T20:28:41.081Z,8.97
2022-11-26T20:31:07.916Z,10.17
2022-11-26T20:33:35.351Z,10.10
2022-11-26T20:36:08.595Z,9.00
2022-11-26T20:38:36.388Z,10.53
2022-11-26T20:41:10.948Z,11.80
2022-11-26T20:43:38.137Z,12.90
2022-11-26T20:46:07.129Z,10.07
2022-11-26T20:48:35.330Z,10.67
2022-11-26T20:51:07.607Z,9.77
2022-11-26T20:53:36.513Z,9.83
2022-11-26T20:56:04.261Z,10.20
2022-11-26T20:58:31.493Z,14.63
2022-11-26T21:00:58.409Z,9.80
2022-11-26T21:03:26.855Z,9.93
2022-11-26T21:05:54.276Z,9.60
2022-11-26T21:08:22.403Z,6.97
2022-11-26T21:10:50.195Z,9.90
2022-11-26T21:13:18.780Z,10.50
2022-11-26T21:15:49.383Z,8.20
2022-11-26T21:18:16.108Z,14.50
2022-11-26T21:20:44.225Z,10.97
2022-11-26T21:23:12.542Z,8.77
2022-11-26T21:25:40.818Z,7.30
2022-11-26T21:28:09.161Z,8.90
2022-11-26T21:30:36.493Z,6.33
2022-11-26T21:33:09.052Z,8.57
2022-11-26T21:35:36.871Z,7.20
2022-11-26T21:38:04.491Z,8.30
2022-11-26T21:40:31.364Z,10.10
2022-11-26T21:42:58.144Z,12.13
2022-11-26T21:45:25.309Z,7.17
2022-11-26T21:47:52.493Z,18.47
2022-11-26T21:50:19.977Z,9.57
2022-11-26T21:52:46.781Z,13.33
2022-11-26T21:55:13.502Z,10.53
2022-11-26T21:57:40.261Z,9.73
2022-11-26T22:00:07.649Z,11.23
2022-11-26T22:02:34.895Z,10.17
2022-11-26T22:05:01.595Z,11.63
2022-11-26T22:07:30.038Z,8.67
2022-11-26T22:09:56.855Z,11.73
2022-11-26T22:12:23.537Z,8.57
2022-11-26T22:14:50.198Z,8.07
2022-11-26T22:17:16.820Z,9.83
2022-11-26T22:19:43.514Z,8.87
2022-11-26T22:22:10.169Z,11.57
2022-11-26T22:24:36.812Z,7.03
2022-11-26T22:27:03.527Z,10.63
2022-11-26T22:29:30.154Z,10.17
2022-11-26T22:31:56.813Z,10.90
2022-11-26T22:34:24.532Z,14.43
2022-11-26T22:36:51.416Z,11.73
2022-11-26T22:39:18.957Z,11.03
2022-11-26T22:41:47.223Z,9.10
2022-11-26T22:44:15.600Z,7.30
2022-11-26T22:46:42.799Z,9.37
2022-11-26T22:49:14.444Z,9.40
2022-11-26T22:51:41.726Z,10.00
2022-11-26T22:54:10.781Z,11.00
2022-11-26T22:56:40.466Z,8.50
2022-11-26T22:59:08.943Z,12.23
2022-11-26T23:01:36.823Z,12.37
2022-11-26T23:04:06.496Z,10.40
2022-11-26T23:06:35.055Z,10.07
2022-11-26T23:09:03.431Z,8.27
2022-11-26T23:11:32.817Z,11.40
2022-11-26T23:13:59.626Z,8.07
2022-11-26T23:16:26.936Z,10.10
2022-11-26T23:18:55.277Z,12.63
2022-11-26T23:21:27.656Z,16.50
2022-11-26T23:23:54.664Z,8.23
2022-11-26T23:26:27.477Z,9.73
2022-11-26T23:28:55.879Z,6.63
2022-11-26T23:31:25.752Z,6.93
2022-11-26T23:33:53.153Z,10.63
2022-11-26T23:36:20.268Z,9.07
2022-11-26T23:38:47.565Z,8.77
2022-11-26T23:41:14.902Z,13.70
2022-11-26T23:43:42.348Z,10.47
2022-11-26T23:46:20.380Z,13.17
2022-11-26T23:48:48.274Z,11.17
2022-11-26T23:51:26.723Z,9.17
2022-11-26T23:53:54.255Z,12.47
2022-11-26T23:56:29.989Z,14.33
2022-11-26T23:58:59.305Z,15.13
